sensor_id;sensor_type;location;lat;lon;timestamp;P1;durP1;ratioP1;P2;durP2;ratioP2
57295;SDS011;43146;50.976;18.216;2024-03-07T00:02:17;44.80;;;24.10;;
57295;SDS011;43146;50.976;18.216;2024-03-07T00:04:43;47.30;;;23.10;;
57295;SDS011;43146;50.976;18.216;2024-03-07T00:07:10;48.80;;;23.80;;
57295;SDS011;43146;50.976;18.216;2024-03-07T00:09:35;50.30;;;24.20;;
57295;SDS011;43146;50.976;18.216;2024-03-07T00:12:01;49.30;;;25.50;;
57295;SDS011;43146;50.976;18.216;2024-03-07T00:14:27;50.60;;;25.00;;
57295;SDS011;43146;50.976;18.216;2024-03-07T00:16:56;47.40;;;25.00;;
57295;SDS011;43146;50.976;18.216;2024-03-07T00:19:25;44.60;;;23.20;;
57295;SDS011;43146;50.976;18.216;2024-03-07T00:21:55;48.60;;;25.40;;
57295;SDS011;43146;50.976;18.216;2024-03-07T00:24:21;53.60;;;26.50;;
57295;SDS011;43146;50.976;18.216;2024-03-07T00:26:48;46.90;;;24.20;;
57295;SDS011;43146;50.976;18.216;2024-03-07T00:29:17;48.20;;;24.70;;
57295;SDS011;43146;50.976;18.216;2024-03-07T00:31:47;49.40;;;25.00;;
57295;SDS011;43146;50.976;18.216;2024-03-07T00:34:13;50.50;;;25.20;;
57295;SDS011;43146;50.976;18.216;2024-03-07T00:36:44;48.30;;;25.60;;
57295;SDS011;43146;50.976;18.216;2024-03-07T00:39:11;45.60;;;24.40;;
57295;SDS011;43146;50.976;18.216;2024-03-07T00:41:40;46.70;;;23.80;;
57295;SDS011;43146;50.976;18.216;2024-03-07T00:44:09;43.90;;;23.60;;
57295;SDS011;43146;50.976;18.216;2024-03-07T00:46:35;49.10;;;24.30;;
57295;SDS011;43146;50.976;18.216;2024-03-07T00:49:02;48.90;;;25.50;;
57295;SDS011;43146;50.976;18.216;2024-03-07T00:51:28;53.80;;;25.60;;
57295;SDS011;43146;50.976;18.216;2024-03-07T00:53:53;58.40;;;28.30;;
57295;SDS011;43146;50.976;18.216;2024-03-07T00:56:19;53.20;;;26.70;;
57295;SDS011;43146;50.976;18.216;2024-03-07T00:58:47;50.10;;;25.00;;
57295;SDS011;43146;50.976;18.216;2024-03-07T01:01:13;42.40;;;22.60;;
57295;SDS011;43146;50.976;18.216;2024-03-07T01:03:41;44.70;;;22.80;;
57295;SDS011;43146;50.976;18.216;2024-03-07T01:06:07;44.60;;;22.10;;
57295;SDS011;43146;50.976;18.216;2024-03-07T01:08:35;48.60;;;23.60;;
57295;SDS011;43146;50.976;18.216;2024-03-07T01:11:02;43.40;;;22.40;;
57295;SDS011;43146;50.976;18.216;2024-03-07T01:13:40;44.70;;;24.00;;
57295;SDS011;43146;50.976;18.216;2024-03-07T01:16:07;44.80;;;22.90;;
57295;SDS011;43146;50.976;18.216;2024-03-07T01:18:33;43.20;;;21.70;;
57295;SDS011;43146;50.976;18.216;2024-03-07T01:20:59;44.70;;;23.90;;
57295;SDS011;43146;50.976;18.216;2024-03-07T01:23:28;46.40;;;24.30;;
57295;SDS011;43146;50.976;18.216;2024-03-07T01:25:58;45.40;;;24.30;;
57295;SDS011;43146;50.976;18.216;2024-03-07T01:28:24;43.80;;;23.90;;
57295;SDS011;43146;50.976;18.216;2024-03-07T01:30:51;47.40;;;24.20;;
57295;SDS011;43146;50.976;18.216;2024-03-07T01:33:18;47.50;;;24.10;;
57295;SDS011;43146;50.976;18.216;2024-03-07T01:35:47;46.50;;;24.10;;
57295;SDS011;43146;50.976;18.216;2024-03-07T01:38:13;48.60;;;24.20;;
57295;SDS011;43146;50.976;18.216;2024-03-07T01:40:40;46.90;;;24.20;;
57295;SDS011;43146;50.976;18.216;2024-03-07T01:43:08;47.30;;;22.70;;
57295;SDS011;43146;50.976;18.216;2024-03-07T01:45:35;43.30;;;22.30;;
57295;SDS011;43146;50.976;18.216;2024-03-07T01:48:06;41.40;;;22.70;;
57295;SDS011;43146;50.976;18.216;2024-03-07T01:50:34;44.90;;;24.60;;
57295;SDS011;43146;50.976;18.216;2024-03-07T01:53:03;48.20;;;25.10;;
57295;SDS011;43146;50.976;18.216;2024-03-07T01:55:31;47.30;;;23.70;;
57295;SDS011;43146;50.976;18.216;2024-03-07T01:58:02;49.10;;;25.20;;
57295;SDS011;43146;50.976;18.216;2024-03-07T02:00:28;50.50;;;24.20;;
57295;SDS011;43146;50.976;18.216;2024-03-07T02:02:54;52.10;;;25.10;;
57295;SDS011;43146;50.976;18.216;2024-03-07T02:05:20;47.30;;;24.20;;
57295;SDS011;43146;50.976;18.216;2024-03-07T02:07:47;52.40;;;24.40;;
57295;SDS011;43146;50.976;18.216;2024-03-07T02:10:12;54.40;;;26.30;;
57295;SDS011;43146;50.976;18.216;2024-03-07T02:12:38;53.00;;;25.40;;
57295;SDS011;43146;50.976;18.216;2024-03-07T02:15:04;56.20;;;26.50;;
57295;SDS011;43146;50.976;18.216;2024-03-07T02:17:30;54.10;;;27.60;;
57295;SDS011;43146;50.976;18.216;2024-03-07T02:19:57;54.80;;;27.20;;
57295;SDS011;43146;50.976;18.216;2024-03-07T02:22:24;62.80;;;28.00;;
57295;SDS011;43146;50.976;18.216;2024-03-07T02:24:51;53.60;;;25.30;;
57295;SDS011;43146;50.976;18.216;2024-03-07T02:27:18;55.70;;;25.70;;
57295;SDS011;43146;50.976;18.216;2024-03-07T02:29:44;54.60;;;25.80;;
57295;SDS011;43146;50.976;18.216;2024-03-07T02:32:09;51.90;;;26.10;;
57295;SDS011;43146;50.976;18.216;2024-03-07T02:34:35;53.20;;;24.40;;
57295;SDS011;43146;50.976;18.216;2024-03-07T02:37:01;51.50;;;24.80;;
57295;SDS011;43146;50.976;18.216;2024-03-07T02:39:27;51.00;;;24.80;;
57295;SDS011;43146;50.976;18.216;2024-03-07T02:41:53;53.00;;;26.30;;
57295;SDS011;43146;50.976;18.216;2024-03-07T02:44:19;50.40;;;25.50;;
57295;SDS011;43146;50.976;18.216;2024-03-07T02:46:45;48.40;;;24.80;;
57295;SDS011;43146;50.976;18.216;2024-03-07T02:49:12;53.60;;;25.70;;
57295;SDS011;43146;50.976;18.216;2024-03-07T02:51:40;54.30;;;26.30;;
57295;SDS011;43146;50.976;18.216;2024-03-07T02:54:07;52.80;;;26.10;;
57295;SDS011;43146;50.976;18.216;2024-03-07T02:56:33;52.50;;;27.00;;
57295;SDS011;43146;50.976;18.216;2024-03-07T02:58:59;50.30;;;24.90;;
57295;SDS011;43146;50.976;18.216;2024-03-07T03:01:24;50.50;;;25.50;;
57295;SDS011;43146;50.976;18.216;2024-03-07T03:03:50;52.10;;;27.60;;
57295;SDS011;43146;50.976;18.216;2024-03-07T03:06:15;44.50;;;21.10;;
57295;SDS011;43146;50.976;18.216;2024-03-07T03:08:41;49.70;;;25.90;;
57295;SDS011;43146;50.976;18.216;2024-03-07T03:11:07;43.20;;;22.70;;
57295;SDS011;43146;50.976;18.216;2024-03-07T03:13:37;44.40;;;23.80;;
57295;SDS011;43146;50.976;18.216;2024-03-07T03:16:03;47.60;;;24.70;;
57295;SDS011;43146;50.976;18.216;2024-03-07T03:18:32;51.00;;;25.10;;
57295;SDS011;43146;50.976;18.216;2024-03-07T03:21:00;50.80;;;23.90;;
57295;SDS011;43146;50.976;18.216;2024-03-07T03:23:27;46.20;;;23.80;;
57295;SDS011;43146;50.976;18.216;2024-03-07T03:25:54;47.20;;;24.60;;
57295;SDS011;43146;50.976;18.216;2024-03-07T03:28:20;49.30;;;24.20;;
57295;SDS011;43146;50.976;18.216;2024-03-07T03:30:46;42.80;;;24.50;;
57295;SDS011;43146;50.976;18.216;2024-03-07T03:33:12;40.20;;;23.00;;
57295;SDS011;43146;50.976;18.216;2024-03-07T03:35:38;46.10;;;24.10;;
57295;SDS011;43146;50.976;18.216;2024-03-07T03:38:04;44.60;;;23.20;;
57295;SDS011;43146;50.976;18.216;2024-03-07T03:40:30;44.80;;;23.70;;
57295;SDS011;43146;50.976;18.216;2024-03-07T03:42:56;48.90;;;23.90;;
57295;SDS011;43146;50.976;18.216;2024-03-07T03:45:22;44.60;;;23.50;;
57295;SDS011;43146;50.976;18.216;2024-03-07T03:47:50;44.40;;;23.20;;
57295;SDS011;43146;50.976;18.216;2024-03-07T03:50:17;45.00;;;24.20;;
57295;SDS011;43146;50.976;18.216;2024-03-07T03:52:43;44.20;;;23.30;;
57295;SDS011;43146;50.976;18.216;2024-03-07T03:55:09;41.70;;;23.20;;
57295;SDS011;43146;50.976;18.216;2024-03-07T03:57:36;45.00;;;22.60;;
57295;SDS011;43146;50.976;18.216;2024-03-07T04:00:03;45.60;;;23.10;;
57295;SDS011;43146;50.976;18.216;2024-03-07T04:02:42;43.40;;;22.50;;
57295;SDS011;43146;50.976;18.216;2024-03-07T04:05:13;43.50;;;21.40;;
57295;SDS011;43146;50.976;18.216;2024-03-07T04:07:43;41.40;;;21.70;;
57295;SDS011;43146;50.976;18.216;2024-03-07T04:10:10;39.60;;;19.90;;
57295;SDS011;43146;50.976;18.216;2024-03-07T04:12:37;43.90;;;20.00;;
57295;SDS011;43146;50.976;18.216;2024-03-07T04:15:10;36.00;;;17.70;;
57295;SDS011;43146;50.976;18.216;2024-03-07T04:17:37;39.50;;;20.40;;
57295;SDS011;43146;50.976;18.216;2024-03-07T04:20:04;39.50;;;20.60;;
57295;SDS011;43146;50.976;18.216;2024-03-07T04:22:31;38.60;;;19.50;;
57295;SDS011;43146;50.976;18.216;2024-03-07T04:24:58;41.20;;;20.60;;
57295;SDS011;43146;50.976;18.216;2024-03-07T04:27:24;39.30;;;20.40;;
57295;SDS011;43146;50.976;18.216;2024-03-07T04:29:51;38.20;;;19.80;;
57295;SDS011;43146;50.976;18.216;2024-03-07T04:32:17;41.30;;;20.30;;
57295;SDS011;43146;50.976;18.216;2024-03-07T04:34:44;39.80;;;20.90;;
57295;SDS011;43146;50.976;18.216;2024-03-07T04:37:10;44.60;;;20.50;;
57295;SDS011;43146;50.976;18.216;2024-03-07T04:39:36;38.90;;;19.10;;
57295;SDS011;43146;50.976;18.216;2024-03-07T04:42:02;42.20;;;20.80;;
57295;SDS011;43146;50.976;18.216;2024-03-07T04:44:28;40.20;;;19.30;;
57295;SDS011;43146;50.976;18.216;2024-03-07T04:46:58;49.30;;;21.20;;
57295;SDS011;43146;50.976;18.216;2024-03-07T04:49:26;36.80;;;18.90;;
57295;SDS011;43146;50.976;18.216;2024-03-07T04:51:54;36.60;;;18.40;;
57295;SDS011;43146;50.976;18.216;2024-03-07T04:54:21;46.50;;;21.70;;
57295;SDS011;43146;50.976;18.216;2024-03-07T04:56:47;36.70;;;17.30;;
57295;SDS011;43146;50.976;18.216;2024-03-07T04:59:14;39.00;;;18.20;;
57295;SDS011;43146;50.976;18.216;2024-03-07T05:01:40;32.40;;;17.50;;
57295;SDS011;43146;50.976;18.216;2024-03-07T05:04:06;39.60;;;19.50;;
57295;SDS011;43146;50.976;18.216;2024-03-07T05:06:32;37.40;;;18.40;;
57295;SDS011;43146;50.976;18.216;2024-03-07T05:09:04;42.00;;;20.30;;
57295;SDS011;43146;50.976;18.216;2024-03-07T05:11:32;36.10;;;18.90;;
57295;SDS011;43146;50.976;18.216;2024-03-07T05:13:59;40.30;;;17.60;;
57295;SDS011;43146;50.976;18.216;2024-03-07T05:16:25;37.40;;;17.80;;
57295;SDS011;43146;50.976;18.216;2024-03-07T05:18:55;33.20;;;16.80;;
57295;SDS011;43146;50.976;18.216;2024-03-07T05:21:25;36.20;;;17.40;;
57295;SDS011;43146;50.976;18.216;2024-03-07T05:24:04;34.70;;;16.10;;
57295;SDS011;43146;50.976;18.216;2024-03-07T05:26:30;37.10;;;17.70;;
57295;SDS011;43146;50.976;18.216;2024-03-07T05:29:03;39.40;;;18.10;;
57295;SDS011;43146;50.976;18.216;2024-03-07T05:31:34;35.50;;;17.50;;
57295;SDS011;43146;50.976;18.216;2024-03-07T05:34:03;37.80;;;17.50;;
57295;SDS011;43146;50.976;18.216;2024-03-07T05:36:36;35.10;;;18.10;;
57295;SDS011;43146;50.976;18.216;2024-03-07T05:39:09;36.70;;;18.10;;
57295;SDS011;43146;50.976;18.216;2024-03-07T05:41:36;39.70;;;19.50;;
57295;SDS011;43146;50.976;18.216;2024-03-07T05:44:03;34.20;;;17.90;;
57295;SDS011;43146;50.976;18.216;2024-03-07T05:46:29;38.10;;;19.00;;
57295;SDS011;43146;50.976;18.216;2024-03-07T05:48:55;35.00;;;18.40;;
57295;SDS011;43146;50.976;18.216;2024-03-07T05:51:25;38.00;;;19.10;;
57295;SDS011;43146;50.976;18.216;2024-03-07T05:53:50;39.50;;;18.90;;
57295;SDS011;43146;50.976;18.216;2024-03-07T05:56:17;35.00;;;17.50;;
57295;SDS011;43146;50.976;18.216;2024-03-07T05:58:43;29.90;;;14.10;;
57295;SDS011;43146;50.976;18.216;2024-03-07T06:01:08;35.50;;;18.20;;
57295;SDS011;43146;50.976;18.216;2024-03-07T06:03:34;35.10;;;18.30;;
57295;SDS011;43146;50.976;18.216;2024-03-07T06:06:00;39.00;;;20.10;;
57295;SDS011;43146;50.976;18.216;2024-03-07T06:08:25;35.70;;;17.90;;
57295;SDS011;43146;50.976;18.216;2024-03-07T06:10:52;34.70;;;19.10;;
57295;SDS011;43146;50.976;18.216;2024-03-07T06:13:18;39.10;;;18.90;;
57295;SDS011;43146;50.976;18.216;2024-03-07T06:15:44;35.40;;;19.00;;
57295;SDS011;43146;50.976;18.216;2024-03-07T06:18:11;36.30;;;18.20;;
57295;SDS011;43146;50.976;18.216;2024-03-07T06:20:42;35.20;;;18.70;;
57295;SDS011;43146;50.976;18.216;2024-03-07T06:23:08;35.30;;;18.30;;
57295;SDS011;43146;50.976;18.216;2024-03-07T06:25:35;39.90;;;20.30;;
57295;SDS011;43146;50.976;18.216;2024-03-07T06:28:15;43.60;;;20.40;;
57295;SDS011;43146;50.976;18.216;2024-03-07T06:30:42;38.50;;;19.70;;
57295;SDS011;43146;50.976;18.216;2024-03-07T06:33:10;36.00;;;19.10;;
57295;SDS011;43146;50.976;18.216;2024-03-07T06:35:37;42.40;;;21.10;;
57295;SDS011;43146;50.976;18.216;2024-03-07T06:38:04;34.30;;;18.50;;
57295;SDS011;43146;50.976;18.216;2024-03-07T06:40:37;33.00;;;17.40;;
57295;SDS011;43146;50.976;18.216;2024-03-07T06:43:05;33.70;;;17.40;;
57295;SDS011;43146;50.976;18.216;2024-03-07T06:45:37;36.20;;;17.60;;
57295;SDS011;43146;50.976;18.216;2024-03-07T06:48:07;32.70;;;18.10;;
57295;SDS011;43146;50.976;18.216;2024-03-07T06:50:34;34.20;;;18.50;;
57295;SDS011;43146;50.976;18.216;2024-03-07T06:53:01;37.30;;;19.40;;
57295;SDS011;43146;50.976;18.216;2024-03-07T06:55:27;34.30;;;18.50;;
57295;SDS011;43146;50.976;18.216;2024-03-07T06:57:53;34.60;;;18.10;;
57295;SDS011;43146;50.976;18.216;2024-03-07T07:00:19;29.10;;;14.40;;
57295;SDS011;43146;50.976;18.216;2024-03-07T07:02:46;30.40;;;16.40;;
57295;SDS011;43146;50.976;18.216;2024-03-07T07:05:13;34.60;;;18.30;;
57295;SDS011;43146;50.976;18.216;2024-03-07T07:07:47;33.40;;;17.40;;
57295;SDS011;43146;50.976;18.216;2024-03-07T07:10:19;31.90;;;18.40;;
57295;SDS011;43146;50.976;18.216;2024-03-07T07:12:45;33.00;;;18.00;;
57295;SDS011;43146;50.976;18.216;2024-03-07T07:15:11;34.30;;;17.60;;
57295;SDS011;43146;50.976;18.216;2024-03-07T07:17:38;34.80;;;18.20;;
57295;SDS011;43146;50.976;18.216;2024-03-07T07:20:07;35.80;;;19.10;;
57295;SDS011;43146;50.976;18.216;2024-03-07T07:22:39;32.10;;;18.40;;
57295;SDS011;43146;50.976;18.216;2024-03-07T07:25:05;34.00;;;18.30;;
57295;SDS011;43146;50.976;18.216;2024-03-07T07:27:47;34.80;;;19.30;;
57295;SDS011;43146;50.976;18.216;2024-03-07T07:30:20;36.80;;;19.50;;
57295;SDS011;43146;50.976;18.216;2024-03-07T07:32:50;32.70;;;17.00;;
57295;SDS011;43146;50.976;18.216;2024-03-07T07:35:16;36.80;;;19.40;;
57295;SDS011;43146;50.976;18.216;2024-03-07T07:37:43;36.40;;;19.50;;
57295;SDS011;43146;50.976;18.216;2024-03-07T07:40:14;36.00;;;19.70;;
57295;SDS011;43146;50.976;18.216;2024-03-07T07:42:46;30.80;;;17.50;;
57295;SDS011;43146;50.976;18.216;2024-03-07T07:45:12;36.70;;;19.80;;
57295;SDS011;43146;50.976;18.216;2024-03-07T07:47:39;35.90;;;20.80;;
57295;SDS011;43146;50.976;18.216;2024-03-07T07:50:11;35.60;;;19.70;;
57295;SDS011;43146;50.976;18.216;2024-03-07T07:52:45;36.60;;;19.70;;
57295;SDS011;43146;50.976;18.216;2024-03-07T07:57:41;38.40;;;20.20;;
57295;SDS011;43146;50.976;18.216;2024-03-07T08:00:10;36.90;;;19.10;;
57295;SDS011;43146;50.976;18.216;2024-03-07T08:02:37;38.20;;;20.90;;
57295;SDS011;43146;50.976;18.216;2024-03-07T08:05:03;35.10;;;20.80;;
57295;SDS011;43146;50.976;18.216;2024-03-07T08:07:30;35.80;;;19.60;;
57295;SDS011;43146;50.976;18.216;2024-03-07T08:09:56;36.50;;;20.10;;
57295;SDS011;43146;50.976;18.216;2024-03-07T08:12:22;34.40;;;18.40;;
57295;SDS011;43146;50.976;18.216;2024-03-07T08:14:48;33.10;;;17.80;;
57295;SDS011;43146;50.976;18.216;2024-03-07T08:17:13;33.60;;;18.50;;
57295;SDS011;43146;50.976;18.216;2024-03-07T08:19:40;34.50;;;18.20;;
57295;SDS011;43146;50.976;18.216;2024-03-07T08:22:07;35.80;;;17.90;;
57295;SDS011;43146;50.976;18.216;2024-03-07T08:24:35;35.00;;;17.80;;
57295;SDS011;43146;50.976;18.216;2024-03-07T08:27:00;34.00;;;17.40;;
57295;SDS011;43146;50.976;18.216;2024-03-07T08:29:27;32.50;;;18.20;;
57295;SDS011;43146;50.976;18.216;2024-03-07T08:31:52;33.60;;;18.70;;
57295;SDS011;43146;50.976;18.216;2024-03-07T08:34:18;31.20;;;18.60;;
57295;SDS011;43146;50.976;18.216;2024-03-07T08:36:44;34.00;;;18.50;;
57295;SDS011;43146;50.976;18.216;2024-03-07T08:39:12;37.70;;;18.90;;
57295;SDS011;43146;50.976;18.216;2024-03-07T08:41:39;34.00;;;17.00;;
57295;SDS011;43146;50.976;18.216;2024-03-07T08:44:07;36.10;;;19.60;;
57295;SDS011;43146;50.976;18.216;2024-03-07T08:46:34;35.70;;;19.50;;
57295;SDS011;43146;50.976;18.216;2024-03-07T08:49:00;35.00;;;17.90;;
57295;SDS011;43146;50.976;18.216;2024-03-07T08:51:25;35.80;;;18.10;;
57295;SDS011;43146;50.976;18.216;2024-03-07T08:53:51;36.50;;;17.80;;
57295;SDS011;43146;50.976;18.216;2024-03-07T08:56:16;37.10;;;18.20;;
57295;SDS011;43146;50.976;18.216;2024-03-07T08:58:42;33.70;;;18.50;;
57295;SDS011;43146;50.976;18.216;2024-03-07T09:01:09;30.70;;;17.10;;
57295;SDS011;43146;50.976;18.216;2024-03-07T09:03:34;34.90;;;18.60;;
57295;SDS011;43146;50.976;18.216;2024-03-07T09:06:00;33.00;;;16.50;;
57295;SDS011;43146;50.976;18.216;2024-03-07T09:08:25;34.20;;;16.90;;
57295;SDS011;43146;50.976;18.216;2024-03-07T09:10:51;34.90;;;18.50;;
57295;SDS011;43146;50.976;18.216;2024-03-07T09:13:23;37.20;;;18.20;;
57295;SDS011;43146;50.976;18.216;2024-03-07T09:15:49;34.70;;;17.90;;
57295;SDS011;43146;50.976;18.216;2024-03-07T09:18:15;33.20;;;16.20;;
57295;SDS011;43146;50.976;18.216;2024-03-07T09:20:41;32.30;;;15.90;;
57295;SDS011;43146;50.976;18.216;2024-03-07T09:23:07;33.10;;;16.70;;
57295;SDS011;43146;50.976;18.216;2024-03-07T09:25:32;34.40;;;18.70;;
57295;SDS011;43146;50.976;18.216;2024-03-07T09:27:59;32.80;;;17.50;;
57295;SDS011;43146;50.976;18.216;2024-03-07T09:30:25;34.70;;;18.60;;
57295;SDS011;43146;50.976;18.216;2024-03-07T09:32:53;32.80;;;16.60;;
57295;SDS011;43146;50.976;18.216;2024-03-07T09:35:22;32.20;;;17.10;;
57295;SDS011;43146;50.976;18.216;2024-03-07T09:37:48;33.60;;;15.80;;
57295;SDS011;43146;50.976;18.216;2024-03-07T09:40:14;36.20;;;18.40;;
57295;SDS011;43146;50.976;18.216;2024-03-07T09:42:44;35.50;;;18.80;;
57295;SDS011;43146;50.976;18.216;2024-03-07T09:45:14;33.40;;;18.30;;
57295;SDS011;43146;50.976;18.216;2024-03-07T09:47:42;37.40;;;18.90;;
57295;SDS011;43146;50.976;18.216;2024-03-07T09:50:15;36.50;;;17.90;;
57295;SDS011;43146;50.976;18.216;2024-03-07T09:52:47;35.10;;;18.70;;
57295;SDS011;43146;50.976;18.216;2024-03-07T09:55:17;35.80;;;18.90;;
57295;SDS011;43146;50.976;18.216;2024-03-07T09:57:45;33.10;;;17.30;;
57295;SDS011;43146;50.976;18.216;2024-03-07T10:00:12;32.60;;;17.30;;
57295;SDS011;43146;50.976;18.216;2024-03-07T10:02:48;32.90;;;17.20;;
57295;SDS011;43146;50.976;18.216;2024-03-07T10:05:18;38.70;;;19.80;;
57295;SDS011;43146;50.976;18.216;2024-03-07T10:07:44;38.00;;;19.00;;
57295;SDS011;43146;50.976;18.216;2024-03-07T10:10:11;33.20;;;17.50;;
57295;SDS011;43146;50.976;18.216;2024-03-07T10:12:37;34.00;;;18.20;;
57295;SDS011;43146;50.976;18.216;2024-03-07T10:15:05;36.50;;;18.10;;
57295;SDS011;43146;50.976;18.216;2024-03-07T10:17:31;31.00;;;16.50;;
57295;SDS011;43146;50.976;18.216;2024-03-07T10:20:00;31.40;;;17.40;;
57295;SDS011;43146;50.976;18.216;2024-03-07T10:22:26;30.70;;;16.00;;
57295;SDS011;43146;50.976;18.216;2024-03-07T10:24:53;32.60;;;16.20;;
57295;SDS011;43146;50.976;18.216;2024-03-07T10:27:22;32.10;;;16.90;;
57295;SDS011;43146;50.976;18.216;2024-03-07T10:29:48;33.60;;;16.70;;
57295;SDS011;43146;50.976;18.216;2024-03-07T10:32:21;33.80;;;15.60;;
57295;SDS011;43146;50.976;18.216;2024-03-07T10:34:49;35.30;;;18.20;;
57295;SDS011;43146;50.976;18.216;2024-03-07T10:37:16;51.30;;;22.30;;
57295;SDS011;43146;50.976;18.216;2024-03-07T10:39:46;47.10;;;21.50;;
57295;SDS011;43146;50.976;18.216;2024-03-07T10:42:15;43.50;;;21.30;;
57295;SDS011;43146;50.976;18.216;2024-03-07T10:44:45;37.10;;;17.00;;
57295;SDS011;43146;50.976;18.216;2024-03-07T10:58:37;34.60;;;17.60;;
57295;SDS011;43146;50.976;18.216;2024-03-07T11:01:04;32.40;;;16.40;;
57295;SDS011;43146;50.976;18.216;2024-03-07T11:03:36;31.80;;;16.20;;
57295;SDS011;43146;50.976;18.216;2024-03-07T11:06:02;31.60;;;17.70;;
57295;SDS011;43146;50.976;18.216;2024-03-07T11:08:33;40.30;;;18.20;;
57295;SDS011;43146;50.976;18.216;2024-03-07T11:11:00;36.20;;;16.10;;
57295;SDS011;43146;50.976;18.216;2024-03-07T11:13:26;33.40;;;18.60;;
57295;SDS011;43146;50.976;18.216;2024-03-07T11:15:52;25.10;;;13.00;;
57295;SDS011;43146;50.976;18.216;2024-03-07T11:18:23;34.30;;;16.70;;
57295;SDS011;43146;50.976;18.216;2024-03-07T11:20:49;27.70;;;13.80;;
57295;SDS011;43146;50.976;18.216;2024-03-07T11:23:32;31.60;;;15.00;;
57295;SDS011;43146;50.976;18.216;2024-03-07T11:26:04;29.50;;;15.30;;
57295;SDS011;43146;50.976;18.216;2024-03-07T11:28:34;35.60;;;19.20;;
57295;SDS011;43146;50.976;18.216;2024-03-07T11:33:37;31.70;;;15.00;;
57295;SDS011;43146;50.976;18.216;2024-03-07T11:36:07;35.90;;;19.20;;
57295;SDS011;43146;50.976;18.216;2024-03-07T11:38:37;34.90;;;17.70;;
57295;SDS011;43146;50.976;18.216;2024-03-07T11:41:09;29.70;;;16.00;;
57295;SDS011;43146;50.976;18.216;2024-03-07T11:43:39;37.50;;;17.80;;
57295;SDS011;43146;50.976;18.216;2024-03-07T11:46:07;29.20;;;15.00;;
57295;SDS011;43146;50.976;18.216;2024-03-07T11:48:41;36.00;;;19.40;;
57295;SDS011;43146;50.976;18.216;2024-03-07T11:51:08;34.10;;;17.80;;
57295;SDS011;43146;50.976;18.216;2024-03-07T11:53:39;33.10;;;17.60;;
57295;SDS011;43146;50.976;18.216;2024-03-07T11:56:06;33.50;;;17.40;;
57295;SDS011;43146;50.976;18.216;2024-03-07T11:58:41;36.30;;;19.10;;
57295;SDS011;43146;50.976;18.216;2024-03-07T12:01:07;37.10;;;18.70;;
57295;SDS011;43146;50.976;18.216;2024-03-07T12:03:39;35.70;;;18.60;;
57295;SDS011;43146;50.976;18.216;2024-03-07T12:06:05;36.30;;;17.90;;
57295;SDS011;43146;50.976;18.216;2024-03-07T12:08:30;36.40;;;19.60;;
57295;SDS011;43146;50.976;18.216;2024-03-07T12:10:56;37.70;;;19.60;;
57295;SDS011;43146;50.976;18.216;2024-03-07T12:13:22;34.40;;;18.50;;
57295;SDS011;43146;50.976;18.216;2024-03-07T12:15:50;39.50;;;19.10;;
57295;SDS011;43146;50.976;18.216;2024-03-07T12:18:20;39.30;;;20.10;;
57295;SDS011;43146;50.976;18.216;2024-03-07T12:20:48;39.50;;;20.00;;
57295;SDS011;43146;50.976;18.216;2024-03-07T12:23:19;35.80;;;19.00;;
57295;SDS011;43146;50.976;18.216;2024-03-07T12:25:47;31.80;;;17.10;;
57295;SDS011;43146;50.976;18.216;2024-03-07T12:28:14;36.60;;;18.90;;
57295;SDS011;43146;50.976;18.216;2024-03-07T12:33:11;32.80;;;17.50;;
57295;SDS011;43146;50.976;18.216;2024-03-07T12:35:39;34.40;;;15.40;;
57295;SDS011;43146;50.976;18.216;2024-03-07T12:38:08;31.80;;;15.50;;
57295;SDS011;43146;50.976;18.216;2024-03-07T12:40:36;34.30;;;17.60;;
57295;SDS011;43146;50.976;18.216;2024-03-07T12:43:23;34.10;;;16.90;;
57295;SDS011;43146;50.976;18.216;2024-03-07T12:45:51;33.80;;;18.00;;
57295;SDS011;43146;50.976;18.216;2024-03-07T12:48:18;34.00;;;17.70;;
57295;SDS011;43146;50.976;18.216;2024-03-07T12:50:48;31.50;;;16.50;;
57295;SDS011;43146;50.976;18.216;2024-03-07T12:53:21;34.80;;;18.40;;
57295;SDS011;43146;50.976;18.216;2024-03-07T12:55:54;33.30;;;17.40;;
57295;SDS011;43146;50.976;18.216;2024-03-07T12:58:20;34.30;;;17.80;;
57295;SDS011;43146;50.976;18.216;2024-03-07T13:00:53;32.90;;;18.40;;
57295;SDS011;43146;50.976;18.216;2024-03-07T13:03:21;44.30;;;21.40;;
57295;SDS011;43146;50.976;18.216;2024-03-07T13:05:47;38.40;;;20.50;;
57295;SDS011;43146;50.976;18.216;2024-03-07T13:08:12;38.70;;;20.70;;
57295;SDS011;43146;50.976;18.216;2024-03-07T13:10:41;42.20;;;22.70;;
57295;SDS011;43146;50.976;18.216;2024-03-07T13:13:10;30.20;;;16.60;;
57295;SDS011;43146;50.976;18.216;2024-03-07T13:15:36;32.40;;;17.50;;
57295;SDS011;43146;50.976;18.216;2024-03-07T13:18:05;33.30;;;17.40;;
57295;SDS011;43146;50.976;18.216;2024-03-07T13:20:31;29.70;;;15.80;;
57295;SDS011;43146;50.976;18.216;2024-03-07T13:22:57;33.80;;;17.20;;
57295;SDS011;43146;50.976;18.216;2024-03-07T13:25:26;32.10;;;15.30;;
57295;SDS011;43146;50.976;18.216;2024-03-07T13:27:57;31.10;;;16.00;;
57295;SDS011;43146;50.976;18.216;2024-03-07T13:30:25;24.90;;;11.60;;
57295;SDS011;43146;50.976;18.216;2024-03-07T13:32:54;28.90;;;14.20;;
57295;SDS011;43146;50.976;18.216;2024-03-07T13:35:20;29.00;;;15.60;;
57295;SDS011;43146;50.976;18.216;2024-03-07T13:37:47;32.30;;;15.60;;
57295;SDS011;43146;50.976;18.216;2024-03-07T13:40:14;34.50;;;16.20;;
57295;SDS011;43146;50.976;18.216;2024-03-07T13:42:55;27.40;;;14.30;;
57295;SDS011;43146;50.976;18.216;2024-03-07T13:45:23;30.10;;;15.60;;
57295;SDS011;43146;50.976;18.216;2024-03-07T13:47:52;27.70;;;14.10;;
57295;SDS011;43146;50.976;18.216;2024-03-07T13:50:23;31.80;;;15.10;;
57295;SDS011;43146;50.976;18.216;2024-03-07T13:52:50;24.60;;;12.00;;
57295;SDS011;43146;50.976;18.216;2024-03-07T13:58:36;28.80;;;14.30;;
57295;SDS011;43146;50.976;18.216;2024-03-07T14:18:18;27.60;;;14.80;;
57295;SDS011;43146;50.976;18.216;2024-03-07T14:20:54;30.40;;;15.40;;
57295;SDS011;43146;50.976;18.216;2024-03-07T14:29:49;25.00;;;13.30;;
57295;SDS011;43146;50.976;18.216;2024-03-07T14:32:20;27.20;;;13.20;;
57295;SDS011;43146;50.976;18.216;2024-03-07T14:35:00;33.50;;;16.20;;
57295;SDS011;43146;50.976;18.216;2024-03-07T14:40:31;32.00;;;16.70;;
57295;SDS011;43146;50.976;18.216;2024-03-07T14:42:57;31.60;;;15.60;;
57295;SDS011;43146;50.976;18.216;2024-03-07T14:45:27;30.80;;;16.60;;
57295;SDS011;43146;50.976;18.216;2024-03-07T14:47:58;35.10;;;18.70;;
57295;SDS011;43146;50.976;18.216;2024-03-07T14:50:24;34.30;;;16.80;;
57295;SDS011;43146;50.976;18.216;2024-03-07T14:52:53;30.40;;;15.70;;
57295;SDS011;43146;50.976;18.216;2024-03-07T14:55:19;28.70;;;15.10;;
57295;SDS011;43146;50.976;18.216;2024-03-07T14:57:45;25.40;;;14.50;;
57295;SDS011;43146;50.976;18.216;2024-03-07T15:00:11;29.30;;;14.50;;
57295;SDS011;43146;50.976;18.216;2024-03-07T15:02:48;27.10;;;15.00;;